Terminal Aerodrome Forecast
Issued by NWS

Home | Current Version | Previous Version | Text Only | Print | Product List | Glossary On
Versions: 1 2 3 4 5 6 7 8 9 10 11 12 13 14 15 16 17 18 19 20 21 22 23 24 25 26 27 28
000
FTUS44 KFWD 231700
TAFAFW
TAF
KAFW 231721Z 2318/2418 06007KT P6SM SCT050 SCT250
     FM240100 08005KT P6SM VCTS SCT060CB BKN200
     FM240300 VRB04KT P6SM FEW060 SCT150=

USA.gov is the U.S. government's official web portal to all federal, state and local government web resources and services.